createdAt,value
2018-05-16T00:02:57.126Z,15.80
2018-05-16T00:06:59.667Z,15.70
2018-05-16T00:11:02.216Z,15.80
2018-05-16T00:15:04.771Z,15.80
2018-05-16T00:19:08.055Z,15.60
2018-05-16T00:23:10.611Z,15.60
2018-05-16T00:27:13.146Z,15.50
2018-05-16T00:31:15.683Z,15.30
2018-05-16T00:35:18.215Z,15.10
2018-05-16T00:39:21.931Z,15.00
2018-05-16T00:43:24.447Z,15.00
2018-05-16T00:47:27.074Z,15.00
2018-05-16T00:51:32.079Z,15.10
2018-05-16T00:55:34.626Z,15.00
2018-05-16T00:59:38.918Z,14.90
2018-05-16T01:03:41.887Z,14.80
2018-05-16T01:07:45.194Z,14.90
2018-05-16T01:11:47.750Z,14.90
2018-05-16T01:15:50.295Z,15.00
2018-05-16T01:19:52.931Z,14.90
2018-05-16T01:23:56.207Z,14.60
2018-05-16T01:27:58.758Z,14.50
2018-05-16T01:32:02.062Z,14.30
2018-05-16T01:36:08.382Z,14.30
2018-05-16T01:40:11.656Z,14.40
2018-05-16T01:44:14.343Z,14.30
2018-05-16T01:48:16.866Z,14.50
2018-05-16T01:52:19.431Z,14.50
2018-05-16T01:56:39.319Z,14.70
2018-05-16T02:00:41.964Z,14.70
2018-05-16T02:04:44.498Z,14.90
2018-05-16T02:08:47.039Z,14.90
2018-05-16T02:12:49.552Z,14.80
2018-05-16T02:16:52.862Z,14.60
2018-05-16T02:20:55.377Z,14.60
2018-05-16T02:24:58.017Z,14.80
2018-05-16T02:29:00.545Z,14.70
2018-05-16T02:33:03.201Z,14.70
2018-05-16T02:37:06.485Z,14.60
2018-05-16T02:41:09.048Z,14.60
2018-05-16T02:45:16.395Z,14.60
2018-05-16T02:49:19.032Z,14.60
2018-05-16T02:53:21.546Z,14.50
2018-05-16T02:57:24.098Z,14.60
2018-05-16T03:01:28.565Z,14.60
2018-05-16T03:05:31.110Z,14.70
2018-05-16T03:09:33.636Z,14.70
2018-05-16T03:13:36.955Z,14.70
2018-05-16T03:17:43.286Z,14.80
2018-05-16T03:21:46.351Z,14.80
2018-05-16T03:25:48.876Z,14.80
2018-05-16T03:29:52.190Z,14.80
2018-05-16T03:33:54.703Z,14.70
2018-05-16T03:37:58.010Z,14.70
2018-05-16T03:42:00.523Z,14.60
2018-05-16T03:46:03.127Z,14.50
2018-05-16T03:50:05.648Z,14.50
2018-05-16T03:54:09.051Z,14.20
2018-05-16T03:58:23.491Z,14.20
2018-05-16T04:02:37.698Z,14.20
2018-05-16T04:06:40.214Z,14.20
2018-05-16T04:10:42.767Z,14.20
2018-05-16T04:14:45.322Z,14.10
2018-05-16T04:18:47.886Z,14.00
2018-05-16T04:22:50.443Z,13.90
2018-05-16T04:26:53.002Z,14.10
2018-05-16T04:30:55.515Z,14.10
2018-05-16T04:34:58.058Z,14.10
2018-05-16T04:39:00.577Z,13.90
2018-05-16T04:43:03.235Z,13.80
2018-05-16T04:47:05.831Z,13.70
2018-05-16T04:51:08.378Z,13.70
2018-05-16T04:55:10.895Z,14.00
2018-05-16T04:59:20.222Z,14.10
2018-05-16T05:03:22.730Z,14.20
2018-05-16T05:07:25.275Z,14.20
2018-05-16T05:11:27.794Z,14.20
2018-05-16T05:15:31.107Z,14.10
2018-05-16T05:19:54.820Z,14.10
2018-05-16T05:23:58.254Z,14.30
2018-05-16T05:28:00.754Z,14.20
2018-05-16T05:32:04.094Z,14.70
2018-05-16T05:36:06.619Z,14.70
2018-05-16T05:44:37.485Z,15.00
2018-05-16T05:48:40.156Z,14.90
2018-05-16T05:52:47.982Z,15.10
2018-05-16T05:56:50.543Z,15.10
2018-05-16T06:00:53.823Z,15.30
2018-05-16T06:05:04.456Z,15.30
2018-05-16T06:09:07.730Z,15.20
2018-05-16T06:13:10.358Z,15.20
2018-05-16T06:17:12.884Z,15.20
2018-05-16T06:21:15.522Z,15.50
2018-05-16T06:25:25.387Z,18.20
2018-05-16T06:29:28.706Z,18.50
2018-05-16T06:33:31.987Z,18.20
2018-05-16T06:37:34.616Z,18.10
2018-05-16T06:41:37.130Z,18.30
2018-05-16T06:45:40.470Z,20.30
2018-05-16T06:50:01.186Z,20.20
2018-05-16T06:54:04.583Z,21.90
2018-05-16T06:58:07.103Z,21.80
2018-05-16T07:02:09.730Z,21.70
2018-05-16T07:06:12.238Z,22.20
2018-05-16T07:10:15.550Z,24.10
2018-05-16T07:14:18.077Z,24.00
2018-05-16T07:18:21.409Z,24.90
2018-05-16T07:22:23.928Z,24.80
2018-05-16T07:26:26.560Z,24.70
2018-05-16T07:30:44.162Z,23.80
2018-05-16T07:34:47.478Z,21.80
2018-05-16T07:38:49.998Z,21.70
2018-05-16T07:42:53.303Z,21.70
2018-05-16T07:46:55.821Z,21.70
2018-05-16T07:50:59.158Z,24.10
2018-05-16T07:55:02.437Z,24.20
2018-05-16T07:59:05.012Z,24.20
2018-05-16T08:03:07.527Z,23.50
2018-05-16T08:07:10.096Z,23.00
2018-05-16T08:11:13.371Z,21.10
2018-05-16T08:15:15.919Z,21.00
2018-05-16T08:19:19.207Z,20.10
2018-05-16T08:23:21.752Z,20.00
2018-05-16T08:27:25.037Z,19.60
2018-05-16T08:31:27.599Z,19.60
2018-05-16T08:35:30.112Z,20.40
2018-05-16T08:39:33.051Z,21.00
2018-05-16T08:43:35.563Z,21.10
2018-05-16T08:47:50.434Z,20.40
2018-05-16T08:51:52.946Z,20.50
2018-05-16T08:55:55.498Z,21.30
2018-05-16T08:59:58.010Z,22.10
2018-05-16T09:04:01.313Z,23.20
2018-05-16T09:08:03.822Z,23.20
2018-05-16T09:12:06.374Z,22.70
2018-05-16T09:16:08.892Z,22.40
2018-05-16T09:20:23.067Z,21.90
2018-05-16T09:24:25.609Z,21.50
2018-05-16T09:28:28.137Z,21.10
2018-05-16T09:32:31.419Z,20.70
2018-05-16T09:36:33.975Z,20.60
2018-05-16T09:40:37.246Z,21.00
2018-05-16T09:44:39.791Z,21.00
2018-05-16T09:48:49.690Z,20.70
2018-05-16T09:52:52.248Z,20.70
2018-05-16T09:56:54.778Z,20.30
2018-05-16T10:00:57.418Z,20.10
2018-05-16T10:04:59.939Z,20.00
2018-05-16T10:09:02.479Z,19.90
2018-05-16T10:13:05.003Z,19.80
2018-05-16T10:17:11.480Z,20.00
2018-05-16T10:21:14.036Z,20.00
2018-05-16T10:25:16.591Z,20.10
2018-05-16T10:29:19.162Z,20.20
2018-05-16T10:33:21.698Z,20.80
2018-05-16T10:37:24.207Z,21.10
2018-05-16T10:41:27.234Z,21.50
2018-05-16T10:45:41.154Z,21.20
2018-05-16T10:49:43.698Z,21.20
2018-05-16T10:53:46.263Z,20.70
2018-05-16T10:57:49.241Z,20.40
2018-05-16T11:01:51.755Z,20.50
2018-05-16T11:05:55.064Z,21.40
2018-05-16T11:09:57.596Z,21.30
2018-05-16T11:14:00.341Z,21.70
2018-05-16T11:18:02.850Z,21.60
2018-05-16T11:22:05.399Z,21.50
2018-05-16T11:26:07.915Z,21.40
2018-05-16T11:30:11.224Z,20.90
2018-05-16T11:34:13.733Z,20.90
2018-05-16T11:38:17.137Z,20.40
2018-05-16T11:42:19.739Z,20.30
2018-05-16T11:46:23.003Z,21.20
2018-05-16T11:50:27.495Z,21.10
2018-05-16T11:54:30.319Z,21.40
2018-05-16T11:58:32.840Z,21.20
2018-05-16T12:02:35.389Z,20.70
2018-05-16T12:06:37.909Z,20.20
2018-05-16T12:10:46.570Z,19.70
2018-05-16T12:14:49.099Z,19.50
2018-05-16T12:18:51.705Z,19.80
2018-05-16T12:22:56.038Z,20.30
2018-05-16T12:26:58.585Z,20.50
2018-05-16T12:31:01.862Z,20.90
2018-05-16T12:35:05.166Z,20.80
2018-05-16T12:39:07.686Z,20.80
2018-05-16T12:43:25.382Z,20.70
2018-05-16T12:47:27.919Z,20.50
2018-05-16T12:51:31.247Z,20.20
2018-05-16T12:55:33.839Z,20.20
2018-05-16T12:59:49.774Z,20.40
2018-05-16T13:03:53.051Z,20.50
2018-05-16T13:07:55.594Z,20.50
2018-05-16T13:11:58.874Z,20.70
2018-05-16T13:16:01.428Z,20.60
2018-05-16T13:20:04.725Z,20.90
2018-05-16T13:24:09.419Z,20.80
2018-05-16T13:28:12.718Z,20.80
2018-05-16T13:32:15.279Z,20.80
2018-05-16T13:36:17.857Z,21.00
2018-05-16T13:40:20.563Z,20.90
2018-05-16T13:44:23.095Z,20.60
2018-05-16T13:48:25.742Z,20.10
2018-05-16T13:52:28.263Z,19.90
2018-05-16T13:56:30.811Z,19.80
2018-05-16T14:00:35.278Z,19.70
2018-05-16T14:04:37.924Z,19.70
2018-05-16T14:08:42.427Z,19.90
2018-05-16T14:12:44.968Z,19.90
2018-05-16T14:16:49.495Z,20.00
2018-05-16T14:20:52.045Z,20.10
2018-05-16T14:24:55.363Z,20.10
2018-05-16T14:28:59.294Z,20.10
2018-05-16T14:33:01.812Z,20.20
2018-05-16T14:37:09.414Z,20.10
2018-05-16T14:41:13.979Z,20.10
2018-05-16T14:45:16.528Z,19.90
2018-05-16T14:49:19.829Z,19.80
2018-05-16T14:53:23.227Z,19.70
2018-05-16T14:57:29.593Z,19.60
2018-05-16T15:01:32.903Z,19.60
2018-05-16T15:05:35.419Z,19.50
2018-05-16T15:09:38.058Z,19.60
2018-05-16T15:13:40.575Z,19.60
2018-05-16T15:17:43.131Z,19.90
2018-05-16T15:21:46.725Z,19.80
2018-05-16T15:25:50.266Z,19.60
2018-05-16T15:29:53.687Z,19.70
2018-05-16T15:33:57.094Z,19.70
2018-05-16T15:38:01.603Z,19.60
2018-05-16T15:42:05.406Z,19.40
2018-05-16T15:46:09.678Z,19.30
2018-05-16T15:50:13.231Z,19.20
2018-05-16T15:54:19.806Z,19.20
2018-05-16T15:58:25.799Z,19.30
2018-05-16T16:02:32.735Z,19.30
2018-05-16T16:06:36.279Z,19.30
2018-05-16T16:10:38.811Z,19.30
2018-05-16T16:14:42.434Z,19.30
2018-05-16T16:18:45.763Z,19.40
2018-05-16T16:22:50.419Z,19.40
2018-05-16T16:26:53.091Z,19.40
2018-05-16T16:30:55.654Z,19.40
2018-05-16T16:35:04.491Z,19.20
2018-05-16T16:39:07.898Z,19.10
2018-05-16T16:43:10.359Z,19.10
2018-05-16T16:47:12.958Z,19.10
2018-05-16T16:51:15.477Z,19.10
2018-05-16T16:55:21.432Z,19.10
2018-05-16T16:59:24.005Z,19.20
2018-05-16T17:03:27.407Z,19.10
2018-05-16T17:07:29.922Z,19.10
2018-05-16T17:11:32.572Z,19.10
2018-05-16T17:15:35.132Z,19.10
2018-05-16T17:19:38.188Z,19.10
2018-05-16T17:23:41.697Z,19.10
2018-05-16T17:27:47.411Z,19.10
2018-05-16T17:31:50.298Z,19.10
2018-05-16T17:35:53.635Z,19.00
2018-05-16T17:39:56.176Z,19.00
2018-05-16T17:44:04.456Z,19.00
2018-05-16T17:48:06.980Z,19.00
2018-05-16T17:52:09.572Z,19.10
2018-05-16T17:56:12.911Z,19.00
2018-05-16T18:00:15.471Z,18.90
2018-05-16T18:04:20.082Z,18.90
2018-05-16T18:08:24.997Z,18.80
2018-05-16T18:12:27.526Z,18.80
2018-05-16T18:16:42.613Z,18.70
2018-05-16T18:20:45.126Z,18.60
2018-05-16T18:24:49.454Z,18.60
2018-05-16T18:29:04.211Z,18.60
2018-05-16T18:33:06.774Z,18.60
2018-05-16T18:37:11.070Z,18.50
2018-05-16T18:41:13.623Z,18.40
2018-05-16T18:45:16.146Z,18.40
2018-05-16T18:49:19.471Z,18.30
2018-05-16T18:53:30.479Z,18.20
2018-05-16T18:57:33.472Z,18.20
2018-05-16T19:01:36.863Z,18.10
2018-05-16T19:05:39.472Z,18.00
2018-05-16T19:09:41.979Z,18.00
2018-05-16T19:13:44.618Z,17.90
2018-05-16T19:17:47.948Z,17.80
2018-05-16T19:21:52.273Z,17.70
2018-05-16T19:25:55.643Z,17.70
2018-05-16T19:30:02.317Z,17.70
2018-05-16T19:34:05.683Z,17.60
2018-05-16T19:38:08.242Z,17.60
2018-05-16T19:42:10.771Z,17.60
2018-05-16T19:46:14.158Z,17.50
2018-05-16T19:50:16.662Z,17.50
2018-05-16T19:54:19.271Z,17.50
2018-05-16T19:58:21.782Z,17.50
2018-05-16T20:02:24.360Z,17.50
2018-05-16T20:06:26.971Z,17.50
2018-05-16T20:10:29.513Z,17.40
2018-05-16T20:14:32.054Z,17.40
2018-05-16T20:18:34.685Z,17.40
2018-05-16T20:22:37.212Z,17.40
2018-05-16T20:26:39.767Z,17.40
2018-05-16T20:30:42.294Z,17.30
2018-05-16T20:34:52.018Z,17.20
2018-05-16T20:38:55.309Z,17.10
2018-05-16T20:42:57.962Z,17.00
2018-05-16T20:47:01.242Z,17.10
2018-05-16T20:51:03.790Z,17.00
2018-05-16T20:55:11.758Z,17.00
2018-05-16T20:59:14.424Z,16.90
2018-05-16T21:03:17.703Z,16.80
2018-05-16T21:07:20.575Z,16.70
2018-05-16T21:11:23.819Z,16.90
2018-05-16T21:15:26.475Z,16.80
2018-05-16T21:19:28.996Z,16.70
2018-05-16T21:23:31.907Z,16.50
2018-05-16T21:27:35.190Z,16.40
2018-05-16T21:31:37.727Z,16.30
2018-05-16T21:35:40.242Z,16.30
2018-05-16T21:39:43.558Z,16.20
2018-05-16T21:43:46.078Z,16.10
2018-05-16T21:47:49.444Z,16.10
2018-05-16T21:51:52.727Z,16.10
2018-05-16T21:55:56.043Z,15.90
2018-05-16T22:00:06.664Z,15.90
2018-05-16T22:04:09.358Z,15.80
2018-05-16T22:08:12.638Z,15.80
2018-05-16T22:12:15.577Z,15.70
2018-05-16T22:16:18.099Z,15.70
2018-05-16T22:20:21.410Z,15.60
2018-05-16T22:24:23.930Z,15.50
2018-05-16T22:28:27.419Z,15.50
2018-05-16T22:32:35.683Z,15.40
2018-05-16T22:36:44.525Z,15.70
2018-05-16T22:40:52.643Z,15.60
2018-05-16T22:44:56.134Z,15.70
2018-05-16T22:48:58.659Z,15.60
2018-05-16T22:53:03.220Z,15.50
2018-05-16T22:57:06.442Z,15.60
2018-05-16T23:01:08.998Z,15.50
2018-05-16T23:05:12.291Z,15.70
2018-05-16T23:09:15.822Z,15.60
2018-05-16T23:13:18.342Z,15.60
2018-05-16T23:17:21.263Z,15.60
2018-05-16T23:21:24.554Z,15.60
2018-05-16T23:25:27.118Z,15.50
2018-05-16T23:29:29.646Z,15.40
2018-05-16T23:33:32.191Z,15.40
2018-05-16T23:37:34.706Z,15.40
2018-05-16T23:41:38.018Z,15.40
2018-05-16T23:45:40.539Z,15.40
2018-05-16T23:49:43.271Z,15.40
2018-05-16T23:53:45.795Z,15.30
2018-05-16T23:57:48.356Z,15.30
